createdAt,value
2023-03-19T00:03:54.346Z,8.50
2023-03-19T00:08:55.823Z,8.19
2023-03-19T00:13:56.673Z,8.54
2023-03-19T00:18:55.286Z,8.37
2023-03-19T00:24:01.149Z,8.55
2023-03-19T00:29:03.172Z,8.35
2023-03-19T00:34:04.546Z,8.44
2023-03-19T00:39:06.978Z,8.23
2023-03-19T00:44:18.307Z,8.58
2023-03-19T00:49:17.456Z,8.81
2023-03-19T00:54:18.635Z,8.85
2023-03-19T00:59:21.140Z,8.72
2023-03-19T01:04:23.467Z,8.70
2023-03-19T01:09:23.364Z,8.46
2023-03-19T01:14:24.202Z,8.59
2023-03-19T01:19:26.491Z,8.64
2023-03-19T01:24:33.892Z,8.50
2023-03-19T01:29:32.054Z,8.28
2023-03-19T01:34:41.229Z,8.21
2023-03-19T01:39:44.000Z,8.20
2023-03-19T01:44:53.830Z,8.36
2023-03-19T01:49:56.453Z,8.03
2023-03-19T01:54:56.945Z,7.66
2023-03-19T02:00:24.673Z,7.91
2023-03-19T02:05:38.844Z,8.22
2023-03-19T02:10:41.653Z,7.86
2023-03-19T02:15:43.106Z,7.48
2023-03-19T02:20:44.064Z,7.30
2023-03-19T02:25:45.278Z,7.31
2023-03-19T02:30:44.246Z,7.17
2023-03-19T02:35:45.847Z,7.38
2023-03-19T02:41:02.983Z,7.65
2023-03-19T02:51:28.938Z,7.37
2023-03-19T02:56:29.106Z,6.64
2023-03-19T03:01:28.651Z,6.61
2023-03-19T03:06:27.876Z,6.57
2023-03-19T03:11:28.209Z,6.27
2023-03-19T03:16:31.597Z,6.20
2023-03-19T03:21:35.603Z,6.36
2023-03-19T03:26:42.139Z,6.63
2023-03-19T03:31:40.590Z,6.67
2023-03-19T03:36:47.402Z,6.63
2023-03-19T03:41:47.863Z,6.72
2023-03-19T03:46:46.990Z,6.51
2023-03-19T03:51:48.514Z,6.18
2023-03-19T03:56:52.476Z,6.42
2023-03-19T04:01:53.119Z,6.58
2023-03-19T04:06:52.719Z,6.58
2023-03-19T04:12:05.616Z,6.66
2023-03-19T04:17:08.240Z,6.75
2023-03-19T04:22:08.743Z,6.84
2023-03-19T04:27:07.773Z,6.88
2023-03-19T04:32:08.046Z,6.59
2023-03-19T04:37:06.386Z,6.64
2023-03-19T04:42:09.157Z,6.79
2023-03-19T04:47:16.106Z,7.31
2023-03-19T04:52:26.295Z,7.33
2023-03-19T04:57:29.666Z,7.11
2023-03-19T05:02:32.523Z,7.01
2023-03-19T05:07:34.320Z,7.43
2023-03-19T05:12:37.550Z,7.51
2023-03-19T05:17:41.554Z,7.81
2023-03-19T05:23:05.239Z,7.84
2023-03-19T05:28:17.407Z,7.60
2023-03-19T05:33:17.600Z,8.03
2023-03-19T05:38:20.507Z,7.84
2023-03-19T05:43:29.632Z,7.95
2023-03-19T05:48:33.722Z,8.03
2023-03-19T05:53:35.481Z,8.13
2023-03-19T05:59:02.474Z,8.29
2023-03-19T06:04:09.051Z,8.57
2023-03-19T06:09:12.417Z,8.39
2023-03-19T06:14:13.849Z,8.51
2023-03-19T06:19:19.449Z,8.76
2023-03-19T06:30:02.901Z,9.08
2023-03-19T06:35:09.039Z,9.07
2023-03-19T06:40:15.861Z,9.26
2023-03-19T06:45:19.733Z,9.37
2023-03-19T06:50:18.343Z,9.18
2023-03-19T06:55:20.590Z,9.17
2023-03-19T07:00:27.200Z,9.23
2023-03-19T07:05:29.907Z,9.15
2023-03-19T07:10:37.121Z,9.18
2023-03-19T07:15:36.946Z,9.11
2023-03-19T07:20:38.986Z,9.10
2023-03-19T07:25:45.245Z,9.35
2023-03-19T07:30:45.342Z,9.90
2023-03-19T07:35:48.294Z,9.65
2023-03-19T07:41:00.985Z,9.62
2023-03-19T07:46:02.200Z,9.80
2023-03-19T07:51:02.200Z,9.72
2023-03-19T07:56:02.468Z,9.24
2023-03-19T08:01:03.167Z,9.33
2023-03-19T08:06:06.088Z,9.63
2023-03-19T08:11:08.965Z,9.65
2023-03-19T08:16:33.668Z,9.42
2023-03-19T08:21:34.193Z,9.69
2023-03-19T08:26:39.523Z,9.83
2023-03-19T08:31:41.828Z,9.70
2023-03-19T08:37:07.509Z,9.94
2023-03-19T08:42:19.460Z,9.82
2023-03-19T08:47:43.520Z,10.26
2023-03-19T08:53:04.730Z,10.15
2023-03-19T08:58:07.998Z,10.55
2023-03-19T09:03:14.046Z,10.29
2023-03-19T09:08:19.907Z,10.69
2023-03-19T09:18:44.867Z,10.87
2023-03-19T09:23:47.027Z,10.94
2023-03-19T09:28:56.048Z,11.14
2023-03-19T09:34:32.998Z,11.32
2023-03-19T09:39:36.674Z,11.67
2023-03-19T09:44:44.987Z,11.16
2023-03-19T09:49:56.690Z,11.59
2023-03-19T09:54:58.864Z,11.78
2023-03-19T10:00:03.746Z,11.62
2023-03-19T10:05:26.427Z,11.33
2023-03-19T10:10:48.219Z,11.85
2023-03-19T10:16:04.994Z,12.24
2023-03-19T10:34:15.411Z,12.15
2023-03-19T10:39:19.040Z,12.43
2023-03-19T10:44:34.038Z,12.63
2023-03-19T10:49:56.510Z,12.89
2023-03-19T10:55:20.597Z,12.89
2023-03-19T11:00:28.541Z,13.07
2023-03-19T11:05:36.234Z,13.14
2023-03-19T11:10:56.041Z,13.22
2023-03-19T11:15:55.418Z,13.12
2023-03-19T11:21:06.660Z,13.45
2023-03-19T11:26:08.572Z,13.77
2023-03-19T11:31:14.738Z,13.79
2023-03-19T11:36:36.327Z,13.87
2023-03-19T11:41:38.056Z,13.95
2023-03-19T11:46:55.949Z,13.68
2023-03-19T11:52:02.378Z,14.06
2023-03-19T11:57:08.869Z,14.19
2023-03-19T12:02:18.977Z,14.10
2023-03-19T12:07:40.420Z,14.38
2023-03-19T12:12:40.982Z,14.41
2023-03-19T12:17:42.656Z,14.47
2023-03-19T12:22:43.964Z,14.67
2023-03-19T12:27:52.111Z,14.34
2023-03-19T12:33:03.705Z,14.90
2023-03-19T12:38:07.352Z,14.91
2023-03-19T12:43:15.862Z,14.87
2023-03-19T12:48:43.322Z,14.91
2023-03-19T12:54:10.585Z,14.66
2023-03-19T12:59:18.101Z,15.14
2023-03-19T13:04:22.200Z,15.47
2023-03-19T13:09:22.912Z,15.74
2023-03-19T13:14:24.717Z,15.63
2023-03-19T13:19:36.684Z,15.36
2023-03-19T13:24:41.555Z,15.68
2023-03-19T13:29:40.278Z,16.17
2023-03-19T13:34:44.109Z,16.25
2023-03-19T13:39:45.948Z,16.57
2023-03-19T13:45:01.857Z,16.81
2023-03-19T13:50:16.918Z,16.87
2023-03-19T13:55:54.739Z,17.22
2023-03-19T14:00:59.005Z,17.63
2023-03-19T14:06:01.486Z,18.76
2023-03-19T14:11:07.420Z,20.31
2023-03-19T14:16:12.087Z,20.05
2023-03-19T14:21:45.333Z,20.15
2023-03-19T14:26:50.901Z,20.60
2023-03-19T14:31:55.323Z,20.93
2023-03-19T14:37:25.160Z,22.26
2023-03-19T14:42:27.390Z,22.22
2023-03-19T14:47:39.887Z,20.83
2023-03-19T14:53:00.767Z,21.05
2023-03-19T14:58:00.911Z,20.92
2023-03-19T15:03:03.884Z,20.48
2023-03-19T15:08:12.694Z,19.46
2023-03-19T15:13:26.775Z,18.70
2023-03-19T15:18:26.303Z,19.07
2023-03-19T15:23:44.782Z,18.81
2023-03-19T15:28:54.000Z,18.18
2023-03-19T15:33:53.597Z,17.14
2023-03-19T15:39:04.877Z,16.64
2023-03-19T15:44:04.150Z,16.09
2023-03-19T15:49:14.283Z,15.92
2023-03-19T15:54:11.614Z,15.65
2023-03-19T15:59:11.451Z,15.33
2023-03-19T16:04:17.934Z,15.15
2023-03-19T16:09:30.482Z,14.91
2023-03-19T16:14:46.493Z,14.74
2023-03-19T16:20:05.488Z,14.37
2023-03-19T16:25:13.507Z,14.21
2023-03-19T16:30:22.008Z,14.18
2023-03-19T16:35:21.592Z,14.08
2023-03-19T16:40:24.141Z,13.93
2023-03-19T16:45:25.996Z,13.78
2023-03-19T16:50:31.218Z,13.65
2023-03-19T16:55:49.990Z,13.55
2023-03-19T17:00:53.590Z,13.09
2023-03-19T17:05:56.526Z,13.11
2023-03-19T17:10:58.692Z,13.09
2023-03-19T17:16:02.212Z,13.04
2023-03-19T17:21:07.254Z,12.95
2023-03-19T17:26:21.002Z,12.87
2023-03-19T17:31:24.190Z,12.79
2023-03-19T17:36:22.568Z,12.72
2023-03-19T17:41:23.350Z,12.65
2023-03-19T17:46:24.361Z,12.54
2023-03-19T17:51:23.336Z,12.47
2023-03-19T17:56:25.339Z,12.41
2023-03-19T18:01:27.560Z,12.28
2023-03-19T18:06:32.022Z,12.23
2023-03-19T18:11:30.112Z,12.20
2023-03-19T18:16:31.414Z,12.16
2023-03-19T18:21:30.177Z,12.08
2023-03-19T18:26:33.679Z,12.04
2023-03-19T18:31:32.561Z,11.98
2023-03-19T18:36:34.847Z,11.85
2023-03-19T18:41:33.918Z,11.78
2023-03-19T18:46:34.911Z,11.73
2023-03-19T18:51:36.126Z,11.65
2023-03-19T18:56:43.752Z,11.40
2023-03-19T19:01:45.652Z,11.54
2023-03-19T19:06:48.286Z,11.51
2023-03-19T19:11:51.219Z,11.41
2023-03-19T19:16:52.444Z,11.20
2023-03-19T19:21:54.473Z,11.16
2023-03-19T19:27:01.035Z,11.13
2023-03-19T19:32:09.059Z,10.90
2023-03-19T19:37:20.346Z,11.01
2023-03-19T19:42:23.056Z,10.90
2023-03-19T19:47:22.174Z,10.73
2023-03-19T19:52:27.044Z,10.44
2023-03-19T19:57:29.634Z,10.52
2023-03-19T20:02:33.607Z,10.40
2023-03-19T20:07:37.823Z,10.35
2023-03-19T20:12:45.682Z,10.34
2023-03-19T20:17:54.104Z,10.31
2023-03-19T20:23:01.608Z,10.08
2023-03-19T20:28:03.983Z,9.90
2023-03-19T20:33:13.480Z,9.73
2023-03-19T20:38:18.520Z,9.75
2023-03-19T20:43:18.770Z,9.61
2023-03-19T20:48:21.616Z,9.53
2023-03-19T20:53:27.345Z,9.47
2023-03-19T20:58:40.479Z,9.35
2023-03-19T21:03:44.354Z,9.39
2023-03-19T21:08:48.253Z,9.25
2023-03-19T21:13:49.757Z,9.13
2023-03-19T21:19:11.796Z,9.24
2023-03-19T21:24:14.062Z,9.21
2023-03-19T21:29:16.229Z,9.25
2023-03-19T21:34:15.447Z,9.16
2023-03-19T21:39:17.662Z,9.28
2023-03-19T21:44:17.001Z,9.29
2023-03-19T21:49:23.919Z,8.76
2023-03-19T21:54:29.573Z,8.32
2023-03-19T21:59:34.472Z,8.86
2023-03-19T22:04:33.431Z,8.75
2023-03-19T22:09:32.436Z,8.60
2023-03-19T22:14:33.208Z,8.73
2023-03-19T22:19:36.238Z,8.65
2023-03-19T22:24:38.290Z,8.57
2023-03-19T22:29:36.458Z,8.56
2023-03-19T22:34:35.938Z,8.31
2023-03-19T22:39:34.844Z,8.41
2023-03-19T22:44:39.149Z,8.40
2023-03-19T22:49:39.014Z,8.38
2023-03-19T22:54:36.554Z,8.20
2023-03-19T22:59:35.591Z,8.43
2023-03-19T23:04:40.733Z,8.21
2023-03-19T23:09:38.402Z,8.27
2023-03-19T23:14:39.148Z,8.22
2023-03-19T23:19:40.771Z,8.11
2023-03-19T23:24:55.696Z,7.87
2023-03-19T23:29:53.588Z,7.90
2023-03-19T23:35:00.609Z,7.77
2023-03-19T23:40:09.497Z,7.81
2023-03-19T23:45:16.280Z,7.52
2023-03-19T23:50:16.049Z,7.36
2023-03-19T23:55:16.634Z,7.55
